createdAt,value
2023-01-02T00:03:12.755Z,7.65
2023-01-02T00:06:54.495Z,7.08
2023-01-02T00:10:37.368Z,9.45
2023-01-02T00:14:19.221Z,8.21
2023-01-02T00:18:01.044Z,7.69
2023-01-02T00:21:42.955Z,9.23
2023-01-02T00:25:24.952Z,10.50
2023-01-02T00:29:06.875Z,10.60
2023-01-02T00:32:48.721Z,7.31
2023-01-02T00:36:30.685Z,10.13
2023-01-02T00:40:12.404Z,5.32
2023-01-02T00:43:54.239Z,7.26
2023-01-02T00:47:35.977Z,5.87
2023-01-02T00:51:17.731Z,4.74
2023-01-02T00:54:59.509Z,8.70
2023-01-02T00:58:41.351Z,8.96
2023-01-02T01:02:23.383Z,11.12
2023-01-02T01:06:05.135Z,13.80
2023-01-02T01:09:46.906Z,8.09
2023-01-02T01:13:28.655Z,7.18
2023-01-02T01:17:10.586Z,11.26
2023-01-02T01:20:52.397Z,7.23
2023-01-02T01:24:34.313Z,13.16
2023-01-02T01:28:16.229Z,8.21
2023-01-02T01:31:58.186Z,6.52
2023-01-02T01:35:40.035Z,8.10
2023-01-02T01:39:21.995Z,10.78
2023-01-02T01:43:03.809Z,10.47
2023-01-02T01:46:45.494Z,8.32
2023-01-02T01:50:27.275Z,8.87
2023-01-02T01:54:09.151Z,7.38
2023-01-02T01:57:51.028Z,6.70
2023-01-02T02:01:32.950Z,5.73
2023-01-02T02:05:14.685Z,8.78
2023-01-02T02:08:56.515Z,8.49
2023-01-02T02:12:38.343Z,10.30
2023-01-02T02:16:20.256Z,9.51
2023-01-02T02:20:02.087Z,12.41
2023-01-02T02:23:44.043Z,12.62
2023-01-02T02:27:25.877Z,7.40
2023-01-02T02:31:07.761Z,8.91
2023-01-02T02:34:49.718Z,11.65
2023-01-02T02:38:31.573Z,10.74
2023-01-02T02:42:13.437Z,13.17
2023-01-02T02:45:55.330Z,5.73
2023-01-02T02:49:37.035Z,8.59
2023-01-02T02:53:18.899Z,12.09
2023-01-02T02:57:00.745Z,11.19
2023-01-02T03:00:42.611Z,7.91
2023-01-02T03:04:24.456Z,6.55
2023-01-02T03:08:06.342Z,12.21
2023-01-02T03:11:49.185Z,9.20
2023-01-02T03:15:30.977Z,6.90
2023-01-02T03:19:12.926Z,12.07
2023-01-02T03:22:54.882Z,9.09
2023-01-02T03:26:36.779Z,7.76
2023-01-02T03:30:18.753Z,10.88
2023-01-02T03:34:01.558Z,7.94
2023-01-02T03:37:43.497Z,11.29
2023-01-02T03:41:25.505Z,10.56
2023-01-02T03:45:07.331Z,10.02
2023-01-02T03:48:49.362Z,8.41
2023-01-02T03:52:31.148Z,10.34
2023-01-02T03:56:13.082Z,7.98
2023-01-02T03:59:54.938Z,13.00
2023-01-02T04:03:36.921Z,13.21
2023-01-02T04:07:18.896Z,11.71
2023-01-02T04:11:00.759Z,8.33
2023-01-02T04:14:42.582Z,5.86
2023-01-02T04:18:24.430Z,8.60
2023-01-02T04:22:06.261Z,8.10
2023-01-02T04:25:48.106Z,9.41
2023-01-02T04:29:29.861Z,7.69
2023-01-02T04:33:22.733Z,6.92
2023-01-02T04:37:04.638Z,8.73
2023-01-02T04:40:46.554Z,10.41
2023-01-02T04:44:28.419Z,7.78
2023-01-02T04:48:11.356Z,6.52
2023-01-02T04:51:53.227Z,8.31
2023-01-02T04:55:35.115Z,8.56
2023-01-02T04:59:17.088Z,8.95
2023-01-02T05:02:59.044Z,7.97
2023-01-02T05:06:40.927Z,9.90
2023-01-02T05:10:22.746Z,8.80
2023-01-02T05:14:07.706Z,8.64
2023-01-02T05:17:46.478Z,5.75
2023-01-02T05:21:28.423Z,11.40
2023-01-02T05:25:10.127Z,7.56
2023-01-02T05:28:51.957Z,7.76
2023-01-02T05:32:33.817Z,9.14
2023-01-02T05:36:15.583Z,5.71
2023-01-02T05:39:57.470Z,8.44
2023-01-02T05:43:39.146Z,3.88
2023-01-02T05:47:21.868Z,5.90
2023-01-02T05:51:04.704Z,6.73
2023-01-02T05:54:46.582Z,8.00
2023-01-02T05:58:28.370Z,6.59
2023-01-02T06:02:10.385Z,8.66
2023-01-02T06:05:52.031Z,7.12
2023-01-02T06:09:33.877Z,7.02
2023-01-02T06:13:15.716Z,8.95
2023-01-02T06:16:57.636Z,7.64
2023-01-02T06:20:39.548Z,10.95
2023-01-02T06:24:21.363Z,6.77
2023-01-02T06:28:03.256Z,9.70
2023-01-02T06:31:51.088Z,8.23
2023-01-02T06:35:27.915Z,8.55
2023-01-02T06:39:09.850Z,11.89
2023-01-02T06:42:54.825Z,6.73
2023-01-02T06:46:35.333Z,3.90
2023-01-02T06:50:17.238Z,9.30
2023-01-02T06:53:58.983Z,3.66
2023-01-02T06:57:40.706Z,9.15
2023-01-02T07:01:22.733Z,5.26
2023-01-02T07:05:04.360Z,7.11
2023-01-02T07:08:46.180Z,8.82
2023-01-02T07:12:28.027Z,7.67
2023-01-02T07:16:09.959Z,9.59
2023-01-02T07:19:53.930Z,6.14
2023-01-02T07:23:34.482Z,7.02
2023-01-02T07:27:16.282Z,6.73
2023-01-02T07:30:58.081Z,6.66
2023-01-02T07:34:39.802Z,5.37
2023-01-02T07:38:21.686Z,10.24
2023-01-02T07:42:03.550Z,6.38
2023-01-02T07:45:49.936Z,8.25
2023-01-02T07:49:27.269Z,8.16
2023-01-02T07:53:09.156Z,10.77
2023-01-02T07:56:51.079Z,11.13
2023-01-02T08:00:32.972Z,9.47
2023-01-02T08:04:14.916Z,5.66
2023-01-02T08:07:56.793Z,9.20
2023-01-02T08:11:38.618Z,9.43
2023-01-02T08:15:20.480Z,9.87
2023-01-02T08:19:02.355Z,7.72
2023-01-02T08:22:44.182Z,10.75
2023-01-02T08:26:25.931Z,8.84
2023-01-02T08:30:07.719Z,10.92
2023-01-02T08:33:49.543Z,8.23
2023-01-02T08:37:31.329Z,5.47
2023-01-02T08:41:13.187Z,11.64
2023-01-02T08:44:55.296Z,9.47
2023-01-02T08:48:37.037Z,8.14
2023-01-02T08:52:18.907Z,9.22
2023-01-02T08:56:00.872Z,12.53
2023-01-02T08:59:42.857Z,13.04
2023-01-02T09:03:25.097Z,14.01
2023-01-02T09:07:06.880Z,11.20
2023-01-02T09:10:48.844Z,10.97
2023-01-02T09:14:31.592Z,6.44
2023-01-02T09:18:13.363Z,5.50
2023-01-02T09:21:55.043Z,6.32
2023-01-02T09:25:36.778Z,8.37
2023-01-02T09:29:18.386Z,1.96
2023-01-02T09:33:00.036Z,6.02
2023-01-02T09:36:43.669Z,2.29
2023-01-02T09:40:25.354Z,3.77
2023-01-02T09:44:07.076Z,5.90
2023-01-02T09:47:48.683Z,3.16
2023-01-02T09:51:30.330Z,4.81
2023-01-02T09:55:12.004Z,4.24
2023-01-02T09:58:53.589Z,3.25
2023-01-02T10:02:35.285Z,4.07
2023-01-02T10:06:16.939Z,5.49
2023-01-02T10:09:58.863Z,6.30
2023-01-02T10:17:22.650Z,7.65
2023-01-02T10:21:04.207Z,4.86
2023-01-02T10:24:45.779Z,2.41
2023-01-02T10:28:27.494Z,5.04
2023-01-02T10:39:29.367Z,0.00
2023-01-02T10:50:30.984Z,0.00
2023-01-02T11:01:34.040Z,0.00
2023-01-02T11:12:35.528Z,0.00
2023-01-02T11:19:57.229Z,2.48
2023-01-02T11:30:58.948Z,0.00
2023-01-02T11:42:00.709Z,0.00
2023-01-02T11:53:02.496Z,2.43
2023-01-02T12:04:04.300Z,0.00
2023-01-02T12:11:25.912Z,3.57
2023-01-02T12:22:27.688Z,4.13
2023-01-02T12:26:10.005Z,5.14
2023-01-02T12:33:31.231Z,4.64
2023-01-02T12:40:52.951Z,4.24
2023-01-02T12:48:15.581Z,2.09
2023-01-02T12:55:37.259Z,2.22
2023-01-02T13:06:44.781Z,0.00
2023-01-02T13:10:20.633Z,1.70
2023-01-02T13:14:02.221Z,2.35
2023-01-02T13:17:43.956Z,3.65
2023-01-02T13:21:25.554Z,2.48
2023-01-02T13:25:07.143Z,2.29
2023-01-02T13:28:48.711Z,2.61
2023-01-02T13:36:17.128Z,2.82
2023-01-02T13:43:32.217Z,1.70
2023-01-02T13:47:16.426Z,2.48
2023-01-02T13:50:55.261Z,2.48
2023-01-02T14:01:57.167Z,0.00
2023-01-02T14:12:58.801Z,0.00
2023-01-02T14:24:16.768Z,0.00
2023-01-02T14:35:02.252Z,1.99
2023-01-02T14:42:29.328Z,2.25
2023-01-02T14:46:05.870Z,3.86
2023-01-02T14:49:47.401Z,2.45
2023-01-02T15:00:49.257Z,2.66
2023-01-02T15:11:50.957Z,0.00
2023-01-02T15:19:12.772Z,2.48
2023-01-02T15:26:34.806Z,2.67
2023-01-02T15:30:16.017Z,3.51
2023-01-02T15:41:17.774Z,0.00
2023-01-02T15:52:19.485Z,0.00
2023-01-02T16:03:21.297Z,0.00
2023-01-02T16:14:22.967Z,0.00
2023-01-02T16:25:24.826Z,0.00
2023-01-02T16:36:26.538Z,6.08
2023-01-02T16:40:08.174Z,3.95
2023-01-02T16:47:31.059Z,3.80
2023-01-02T16:51:13.470Z,1.70
2023-01-02T16:54:56.144Z,5.94
2023-01-02T17:02:17.911Z,5.54
2023-01-02T17:09:39.707Z,2.57
2023-01-02T17:20:41.338Z,0.00
2023-01-02T17:31:43.167Z,0.00
2023-01-02T17:42:44.834Z,0.00
2023-01-02T17:47:00.739Z,3.36
2023-01-02T17:50:08.040Z,1.70
2023-01-02T17:53:49.630Z,2.22
2023-01-02T17:57:31.347Z,3.26
2023-01-02T18:01:13.364Z,2.65
2023-01-02T18:12:14.901Z,0.00
2023-01-02T18:19:36.857Z,5.15
2023-01-02T18:23:18.621Z,3.88
2023-01-02T18:27:00.197Z,2.28
2023-01-02T18:30:41.910Z,2.48
2023-01-02T18:34:47.178Z,2.48
2023-01-02T18:45:27.179Z,0.00
2023-01-02T18:49:08.936Z,3.30
2023-01-02T18:52:50.574Z,2.22
2023-01-02T19:03:52.308Z,0.00
2023-01-02T19:07:33.927Z,2.22
2023-01-02T19:11:15.721Z,8.04
2023-01-02T19:14:57.579Z,6.49
2023-01-02T19:22:19.416Z,4.32
2023-01-02T19:26:01.134Z,2.09
2023-01-02T19:37:02.749Z,0.00
2023-01-02T19:48:04.640Z,0.00
2023-01-02T19:55:26.413Z,2.17
2023-01-02T20:06:28.429Z,0.00
2023-01-02T20:17:30.378Z,0.00
2023-01-02T20:28:32.295Z,0.00
2023-01-02T20:32:14.046Z,2.09
2023-01-02T20:39:35.997Z,2.26
2023-01-02T20:43:17.845Z,4.17
2023-01-02T20:54:19.812Z,2.01
2023-01-02T20:58:01.665Z,2.19
2023-01-02T21:05:23.597Z,3.75
2023-01-02T21:09:05.675Z,7.26
2023-01-02T21:12:47.792Z,4.82
2023-01-02T21:16:29.542Z,2.81
2023-01-02T21:27:31.220Z,0.00
2023-01-02T21:38:34.019Z,2.09
2023-01-02T21:49:35.729Z,0.00
2023-01-02T22:00:37.574Z,0.00
2023-01-02T22:11:39.220Z,0.00
2023-01-02T22:15:20.844Z,3.40
2023-01-02T22:22:42.608Z,2.50
2023-01-02T22:30:23.329Z,3.36
2023-01-02T22:33:46.051Z,3.48
2023-01-02T22:37:27.746Z,5.58
2023-01-02T22:41:09.598Z,6.55
2023-01-02T22:44:51.197Z,5.24
2023-01-02T22:48:32.835Z,2.09
2023-01-02T22:52:14.444Z,3.06
2023-01-02T22:55:56.068Z,2.60
2023-01-02T22:59:37.824Z,4.67
2023-01-02T23:07:23.278Z,2.61
2023-01-02T23:10:41.332Z,4.98
2023-01-02T23:14:23.176Z,6.08
2023-01-02T23:18:04.979Z,5.43
2023-01-02T23:21:47.669Z,2.66
2023-01-02T23:25:29.340Z,4.45
2023-01-02T23:29:10.941Z,3.00
2023-01-02T23:32:52.613Z,2.91
2023-01-02T23:36:34.227Z,2.48
2023-01-02T23:47:35.941Z,0.00
2023-01-02T23:51:17.547Z,5.50
2023-01-02T23:54:59.213Z,3.49
